createdAt,value
2022-09-22T00:01:52.199Z,23.17
2022-09-22T00:06:57.364Z,23.15
2022-09-22T00:12:00.079Z,23.10
2022-09-22T00:17:03.605Z,23.07
2022-09-22T00:22:07.881Z,23.04
2022-09-22T00:27:10.627Z,23.00
2022-09-22T00:32:13.513Z,22.96
2022-09-22T00:37:17.490Z,22.90
2022-09-22T00:42:20.832Z,22.86
2022-09-22T00:47:34.925Z,22.83
2022-09-22T00:52:44.295Z,22.80
2022-09-22T00:57:49.266Z,22.79
2022-09-22T01:02:57.048Z,22.75
2022-09-22T01:08:01.710Z,22.71
2022-09-22T01:13:18.884Z,22.69
2022-09-22T01:18:31.206Z,22.65
2022-09-22T01:24:15.108Z,22.63
2022-09-22T01:29:44.634Z,22.60
2022-09-22T01:34:56.250Z,22.57
2022-09-22T01:40:05.627Z,22.55
2022-09-22T01:45:12.198Z,22.53
2022-09-22T01:50:23.177Z,22.50
2022-09-22T01:55:29.428Z,22.47
2022-09-22T02:00:32.816Z,22.44
2022-09-22T02:05:40.522Z,22.42
2022-09-22T02:10:47.926Z,22.40
2022-09-22T02:16:02.558Z,22.36
2022-09-22T02:21:07.030Z,22.36
2022-09-22T02:26:11.266Z,22.32
2022-09-22T02:31:20.808Z,22.31
2022-09-22T02:36:42.950Z,22.29
2022-09-22T02:42:01.596Z,22.27
2022-09-22T02:47:10.627Z,22.25
2022-09-22T02:52:15.861Z,22.23
2022-09-22T02:57:18.513Z,22.21
2022-09-22T03:02:21.121Z,22.18
2022-09-22T03:07:25.196Z,22.16
2022-09-22T03:12:27.843Z,22.14
2022-09-22T03:17:32.071Z,22.11
2022-09-22T03:22:36.147Z,22.12
2022-09-22T03:27:39.602Z,22.08
2022-09-22T03:32:42.241Z,22.08
2022-09-22T03:37:46.752Z,22.06
2022-09-22T03:42:49.477Z,22.07
2022-09-22T03:47:54.280Z,22.05
2022-09-22T03:52:59.409Z,22.04
2022-09-22T03:58:01.996Z,22.01
2022-09-22T04:03:04.845Z,22.00
2022-09-22T04:08:08.777Z,21.99
2022-09-22T04:13:11.668Z,21.97
2022-09-22T04:18:15.849Z,21.93
2022-09-22T04:23:19.721Z,21.91
2022-09-22T04:28:22.784Z,21.90
2022-09-22T04:33:26.307Z,21.88
2022-09-22T04:38:30.214Z,21.87
2022-09-22T04:43:32.874Z,21.85
2022-09-22T04:48:35.525Z,21.82
2022-09-22T04:53:39.506Z,21.81
2022-09-22T04:58:42.056Z,21.80
2022-09-22T05:03:44.653Z,21.78
2022-09-22T05:08:48.646Z,21.76
2022-09-22T05:13:51.975Z,21.74
2022-09-22T05:18:54.660Z,21.74
2022-09-22T05:23:58.682Z,21.73
2022-09-22T05:29:01.231Z,21.72
2022-09-22T05:34:05.349Z,21.70
2022-09-22T05:39:09.517Z,21.69
2022-09-22T05:44:12.217Z,21.68
2022-09-22T05:49:14.881Z,21.66
2022-09-22T05:54:23.125Z,21.65
2022-09-22T05:59:26.035Z,21.65
2022-09-22T06:04:28.648Z,21.63
2022-09-22T06:09:32.660Z,21.64
2022-09-22T06:14:35.532Z,21.64
2022-09-22T06:19:38.536Z,21.64
2022-09-22T06:24:42.668Z,21.64
2022-09-22T06:29:45.355Z,21.63
2022-09-22T06:34:48.138Z,21.63
2022-09-22T06:39:52.076Z,21.63
2022-09-22T06:44:55.179Z,21.64
2022-09-22T06:49:57.778Z,21.64
2022-09-22T06:55:01.690Z,21.66
2022-09-22T07:00:04.993Z,21.67
2022-09-22T07:05:08.190Z,21.33
2022-09-22T07:10:12.253Z,19.36
2022-09-22T07:15:14.880Z,19.18
2022-09-22T07:20:17.735Z,19.85
2022-09-22T07:25:21.670Z,20.23
2022-09-22T07:30:26.152Z,20.49
2022-09-22T07:35:29.270Z,20.66
2022-09-22T07:40:33.598Z,20.78
2022-09-22T07:45:36.168Z,20.90
2022-09-22T07:50:38.756Z,20.99
2022-09-22T07:55:42.644Z,21.07
2022-09-22T08:00:45.350Z,21.19
2022-09-22T08:05:53.352Z,21.22
2022-09-22T08:11:04.754Z,21.27
2022-09-22T08:16:07.819Z,21.30
2022-09-22T08:21:10.746Z,21.34
2022-09-22T08:26:14.675Z,21.41
2022-09-22T08:31:20.155Z,21.34
2022-09-22T08:36:24.187Z,21.43
2022-09-22T08:41:38.989Z,21.46
2022-09-22T08:46:44.416Z,21.51
2022-09-22T08:51:53.864Z,21.51
2022-09-22T08:57:12.570Z,21.56
2022-09-22T09:02:38.185Z,21.62
2022-09-22T09:07:49.359Z,21.68
2022-09-22T09:13:14.674Z,21.57
2022-09-22T09:18:22.278Z,21.68
2022-09-22T09:25:22.108Z,21.57
2022-09-22T09:29:03.501Z,21.47
2022-09-22T09:34:14.612Z,21.49
2022-09-22T09:39:21.463Z,21.47
2022-09-22T09:44:30.253Z,21.50
2022-09-22T09:49:33.137Z,21.59
2022-09-22T09:54:37.528Z,21.57
2022-09-22T10:00:01.033Z,21.28
2022-09-22T10:05:07.466Z,21.10
2022-09-22T10:10:35.431Z,20.53
2022-09-22T10:15:41.330Z,20.47
2022-09-22T10:20:43.993Z,20.02
2022-09-22T10:25:46.950Z,20.01
2022-09-22T10:30:59.019Z,19.35
2022-09-22T10:36:11.000Z,19.50
2022-09-22T10:41:17.913Z,19.42
2022-09-22T10:46:52.512Z,19.41
2022-09-22T10:52:08.379Z,19.60
2022-09-22T10:57:31.368Z,20.11
2022-09-22T11:02:57.116Z,20.43
2022-09-22T11:08:25.299Z,20.76
2022-09-22T11:13:40.097Z,20.97
2022-09-22T11:19:09.811Z,21.09
2022-09-22T11:24:29.069Z,21.11
2022-09-22T11:30:11.091Z,21.24
2022-09-22T11:35:28.869Z,21.37
2022-09-22T11:41:02.197Z,21.50
2022-09-22T11:46:09.486Z,21.59
2022-09-22T11:51:31.520Z,21.36
2022-09-22T11:56:41.127Z,21.30
2022-09-22T12:01:45.983Z,21.31
2022-09-22T12:06:56.754Z,21.14
2022-09-22T12:12:02.297Z,21.24
2022-09-22T12:17:11.299Z,21.26
2022-09-22T12:22:24.670Z,21.31
2022-09-22T12:27:29.672Z,21.33
2022-09-22T12:32:37.590Z,21.33
2022-09-22T12:37:41.583Z,21.35
2022-09-22T12:42:51.086Z,21.54
2022-09-22T12:47:56.394Z,21.60
2022-09-22T12:53:06.612Z,21.72
2022-09-22T12:58:41.208Z,21.84
2022-09-22T13:03:50.079Z,21.90
2022-09-22T13:09:24.137Z,22.05
2022-09-22T13:15:03.452Z,22.15
2022-09-22T13:20:16.245Z,22.20
2022-09-22T13:25:28.798Z,22.22
2022-09-22T13:30:32.217Z,22.28
2022-09-22T13:35:38.291Z,22.29
2022-09-22T13:40:48.869Z,22.31
2022-09-22T13:45:52.570Z,22.26
2022-09-22T13:50:58.335Z,22.35
2022-09-22T13:56:03.005Z,22.60
2022-09-22T14:01:15.041Z,22.85
2022-09-22T14:06:21.107Z,22.80
2022-09-22T14:11:28.220Z,22.79
2022-09-22T14:16:35.671Z,22.77
2022-09-22T14:21:45.406Z,22.80
2022-09-22T14:26:51.967Z,22.85
2022-09-22T14:32:00.319Z,22.86
2022-09-22T14:37:16.067Z,22.91
2022-09-22T14:42:25.662Z,22.93
2022-09-22T14:47:32.342Z,23.01
2022-09-22T14:52:39.295Z,23.04
2022-09-22T14:57:48.113Z,23.03
2022-09-22T15:02:55.590Z,23.05
2022-09-22T15:07:59.403Z,23.07
2022-09-22T15:13:28.052Z,23.16
2022-09-22T15:18:31.253Z,23.22
2022-09-22T15:23:41.677Z,23.27
2022-09-22T15:28:48.353Z,23.31
2022-09-22T15:33:50.948Z,23.34
2022-09-22T15:38:59.249Z,23.41
2022-09-22T15:44:03.956Z,23.44
2022-09-22T15:49:12.348Z,23.42
2022-09-22T15:54:16.518Z,23.42
2022-09-22T15:59:22.736Z,23.44
2022-09-22T16:04:27.373Z,23.40
2022-09-22T16:09:30.120Z,23.44
2022-09-22T16:14:34.442Z,23.44
2022-09-22T16:19:37.058Z,23.38
2022-09-22T16:24:39.605Z,23.27
2022-09-22T16:29:44.093Z,22.97
2022-09-22T16:34:46.843Z,22.40
2022-09-22T16:39:49.721Z,22.32
2022-09-22T16:44:53.723Z,22.61
2022-09-22T16:49:56.388Z,22.85
2022-09-22T16:54:59.683Z,22.96
2022-09-22T17:00:04.444Z,22.93
2022-09-22T17:05:07.389Z,22.92
2022-09-22T17:10:10.828Z,22.92
2022-09-22T17:15:16.249Z,22.76
2022-09-22T17:20:18.841Z,22.83
2022-09-22T17:25:21.631Z,22.83
2022-09-22T17:30:26.229Z,22.81
2022-09-22T17:35:28.979Z,22.78
2022-09-22T17:40:59.321Z,22.74
2022-09-22T17:46:03.624Z,22.69
2022-09-22T17:51:24.596Z,22.65
2022-09-22T17:56:29.142Z,22.60
2022-09-22T18:01:33.742Z,22.56
2022-09-22T18:06:36.321Z,22.51
2022-09-22T18:11:42.909Z,22.49
2022-09-22T18:16:48.022Z,22.44
2022-09-22T18:21:50.726Z,22.42
2022-09-22T18:26:53.625Z,22.39
2022-09-22T18:31:58.957Z,22.41
2022-09-22T18:37:03.240Z,22.46
2022-09-22T18:42:11.024Z,22.53
2022-09-22T18:47:18.408Z,22.61
2022-09-22T18:52:24.843Z,22.68
2022-09-22T18:57:28.602Z,22.74
2022-09-22T19:02:32.753Z,22.82
2022-09-22T19:07:43.926Z,22.86
2022-09-22T19:12:47.168Z,22.94
2022-09-22T19:17:51.534Z,23.03
2022-09-22T19:22:54.300Z,23.08
2022-09-22T19:27:57.286Z,23.12
2022-09-22T19:33:02.354Z,23.16
2022-09-22T19:38:06.419Z,23.19
2022-09-22T19:43:09.111Z,23.22
2022-09-22T19:48:14.257Z,23.27
2022-09-22T19:53:17.229Z,23.29
2022-09-22T19:58:19.802Z,23.32
2022-09-22T20:03:23.846Z,23.35
2022-09-22T20:08:27.167Z,23.36
2022-09-22T20:13:47.588Z,23.39
2022-09-22T20:18:51.486Z,23.40
2022-09-22T20:23:54.388Z,23.45
2022-09-22T20:28:57.833Z,23.45
2022-09-22T20:34:02.023Z,23.47
2022-09-22T20:39:05.340Z,23.50
2022-09-22T20:44:12.981Z,23.55
2022-09-22T20:49:19.415Z,23.58
2022-09-22T20:54:24.244Z,23.64
2022-09-22T20:59:28.703Z,23.69
2022-09-22T21:04:32.718Z,23.69
2022-09-22T21:09:53.164Z,23.69
2022-09-22T21:14:57.278Z,23.70
2022-09-22T21:20:01.998Z,23.73
2022-09-22T21:25:05.207Z,23.73
2022-09-22T21:30:09.163Z,23.73
2022-09-22T21:35:16.530Z,23.77
2022-09-22T21:40:20.091Z,23.81
2022-09-22T21:45:22.828Z,23.81
2022-09-22T21:50:28.158Z,23.84
2022-09-22T21:55:31.232Z,23.87
2022-09-22T22:00:51.261Z,23.87
2022-09-22T22:06:06.235Z,23.90
2022-09-22T22:11:10.627Z,23.93
2022-09-22T22:16:14.687Z,23.93
2022-09-22T22:21:21.283Z,23.94
2022-09-22T22:26:28.768Z,23.96
2022-09-22T22:31:31.317Z,23.99
2022-09-22T22:36:35.255Z,23.99
2022-09-22T22:41:38.770Z,23.99
2022-09-22T22:46:41.365Z,23.99
2022-09-22T22:51:45.449Z,24.02
2022-09-22T22:56:51.209Z,24.01
2022-09-22T23:01:54.233Z,24.05
2022-09-22T23:06:58.157Z,24.01
2022-09-22T23:12:00.730Z,24.06
2022-09-22T23:17:03.386Z,24.06
2022-09-22T23:22:07.475Z,24.07
2022-09-22T23:27:13.107Z,24.07
2022-09-22T23:32:15.744Z,24.10
2022-09-22T23:37:19.752Z,24.10
2022-09-22T23:42:22.469Z,24.10
2022-09-22T23:47:25.064Z,24.11
2022-09-22T23:52:29.064Z,24.08
2022-09-22T23:57:31.617Z,24.13
